sensor_id;sensor_type;location;lat;lon;timestamp;pressure;altitude;pressure_sealevel;temperature;humidity
41234;BME280;26968;42.686;23.352;2022-10-30T00:01:48;95964.63;;;9.99;64.67
41234;BME280;26968;42.686;23.352;2022-10-30T00:04:14;96053.69;;;10.49;64.71
41234;BME280;26968;42.686;23.352;2022-10-30T00:06:39;95998.47;;;10.14;64.81
41234;BME280;26968;42.686;23.352;2022-10-30T00:09:04;96030.00;;;10.37;64.32
41234;BME280;26968;42.686;23.352;2022-10-30T00:11:30;96013.91;;;10.22;64.97
41234;BME280;26968;42.686;23.352;2022-10-30T00:13:55;96054.63;;;10.38;64.94
41234;BME280;26968;42.686;23.352;2022-10-30T00:16:20;95973.28;;;9.90;64.94
41234;BME280;26968;42.686;23.352;2022-10-30T00:18:46;96000.75;;;10.05;64.76
41234;BME280;26968;42.686;23.352;2022-10-30T00:21:13;96032.47;;;10.22;65.05
41234;BME280;26968;42.686;23.352;2022-10-30T00:23:47;96013.25;;;10.10;64.53
41234;BME280;26968;42.686;23.352;2022-10-30T00:26:13;96007.09;;;10.04;64.84
41234;BME280;26968;42.686;23.352;2022-10-30T00:28:39;96048.66;;;10.21;65.60
41234;BME280;26968;42.686;23.352;2022-10-30T00:31:05;96033.59;;;10.04;65.21
41234;BME280;26968;42.686;23.352;2022-10-30T00:33:31;95982.25;;;9.84;65.29
41234;BME280;26968;42.686;23.352;2022-10-30T00:35:57;96012.59;;;9.98;65.54
41234;BME280;26968;42.686;23.352;2022-10-30T00:38:22;96004.34;;;9.94;64.87
41234;BME280;26968;42.686;23.352;2022-10-30T00:40:48;96042.31;;;10.22;65.26
41234;BME280;26968;42.686;23.352;2022-10-30T00:43:38;96047.41;;;10.28;65.61
41234;BME280;26968;42.686;23.352;2022-10-30T00:48:36;96002.84;;;10.03;65.25
41234;BME280;26968;42.686;23.352;2022-10-30T00:51:04;95940.63;;;9.57;65.58
41234;BME280;26968;42.686;23.352;2022-10-30T00:53:31;96043.69;;;10.29;65.24
41234;BME280;26968;42.686;23.352;2022-10-30T00:56:01;95999.16;;;10.04;65.14
41234;BME280;26968;42.686;23.352;2022-10-30T00:58:36;95981.00;;;9.91;65.22
41234;BME280;26968;42.686;23.352;2022-10-30T01:01:04;95995.94;;;10.02;64.69
41234;BME280;26968;42.686;23.352;2022-10-30T01:03:33;95972.97;;;9.86;65.07
41234;BME280;26968;42.686;23.352;2022-10-30T01:06:03;96037.53;;;10.24;65.86
41234;BME280;26968;42.686;23.352;2022-10-30T01:08:30;96031.19;;;10.25;65.63
41234;BME280;26968;42.686;23.352;2022-10-30T01:10:57;96000.69;;;10.00;65.50
41234;BME280;26968;42.686;23.352;2022-10-30T01:13:24;96005.25;;;10.05;65.27
41234;BME280;26968;42.686;23.352;2022-10-30T01:16:12;95948.94;;;9.66;65.21
41234;BME280;26968;42.686;23.352;2022-10-30T01:29:50;96005.38;;;9.93;65.91
41234;BME280;26968;42.686;23.352;2022-10-30T01:40:17;96004.66;;;9.98;66.14
41234;BME280;26968;42.686;23.352;2022-10-30T01:42:54;95999.03;;;9.94;65.68
41234;BME280;26968;42.686;23.352;2022-10-30T01:50:44;96001.88;;;9.88;66.29
41234;BME280;26968;42.686;23.352;2022-10-30T01:53:25;95978.88;;;9.66;66.27
41234;BME280;26968;42.686;23.352;2022-10-30T01:58:54;95972.72;;;9.61;65.56
41234;BME280;26968;42.686;23.352;2022-10-30T02:01:22;95944.38;;;9.40;66.28
41234;BME280;26968;42.686;23.352;2022-10-30T02:03:49;95921.56;;;9.34;66.43
41234;BME280;26968;42.686;23.352;2022-10-30T02:06:14;95972.72;;;9.61;66.46
41234;BME280;26968;42.686;23.352;2022-10-30T02:08:40;95911.91;;;9.22;66.53
41234;BME280;26968;42.686;23.352;2022-10-30T02:11:05;95941.25;;;9.43;66.38
41234;BME280;26968;42.686;23.352;2022-10-30T02:13:31;95941.50;;;9.41;65.92
41234;BME280;26968;42.686;23.352;2022-10-30T02:15:57;95949.56;;;9.51;66.17
41234;BME280;26968;42.686;23.352;2022-10-30T02:18:23;95912.00;;;9.33;66.20
41234;BME280;26968;42.686;23.352;2022-10-30T02:20:49;95949.63;;;9.56;66.60
41234;BME280;26968;42.686;23.352;2022-10-30T02:23:15;95951.69;;;9.54;66.60
41234;BME280;26968;42.686;23.352;2022-10-30T02:25:43;95909.88;;;9.29;66.13
41234;BME280;26968;42.686;23.352;2022-10-30T02:28:09;95952.94;;;9.47;66.51
41234;BME280;26968;42.686;23.352;2022-10-30T02:30:35;95933.38;;;9.26;66.27
41234;BME280;26968;42.686;23.352;2022-10-30T02:33:00;95974.72;;;9.54;66.05
41234;BME280;26968;42.686;23.352;2022-10-30T02:35:26;95957.56;;;9.35;66.79
41234;BME280;26968;42.686;23.352;2022-10-30T02:37:51;95923.97;;;9.13;66.23
41234;BME280;26968;42.686;23.352;2022-10-30T02:40:17;95915.88;;;9.03;66.62
41234;BME280;26968;42.686;23.352;2022-10-30T02:42:42;95967.31;;;9.29;66.47
41234;BME280;26968;42.686;23.352;2022-10-30T02:45:08;95937.44;;;9.12;67.06
41234;BME280;26968;42.686;23.352;2022-10-30T02:47:33;95915.22;;;8.91;66.59
41234;BME280;26968;42.686;23.352;2022-10-30T02:49:59;95997.91;;;9.42;66.82
41234;BME280;26968;42.686;23.352;2022-10-30T02:52:24;95947.22;;;9.11;66.52
41234;BME280;26968;42.686;23.352;2022-10-30T02:54:50;95989.09;;;9.36;67.15
41234;BME280;26968;42.686;23.352;2022-10-30T02:57:15;95928.31;;;9.03;67.02
41234;BME280;26968;42.686;23.352;2022-10-30T02:59:40;95994.94;;;9.38;67.13
41234;BME280;26968;42.686;23.352;2022-10-30T03:02:06;95994.94;;;9.38;66.61
41234;BME280;26968;42.686;23.352;2022-10-30T03:04:31;95940.97;;;9.01;66.56
41234;BME280;26968;42.686;23.352;2022-10-30T03:06:57;95942.06;;;9.00;66.58
41234;BME280;26968;42.686;23.352;2022-10-30T03:09:22;95983.28;;;9.17;67.13
41234;BME280;26968;42.686;23.352;2022-10-30T03:11:48;95945.91;;;8.92;66.58
41234;BME280;26968;42.686;23.352;2022-10-30T03:14:13;96000.41;;;9.32;66.22
41234;BME280;26968;42.686;23.352;2022-10-30T03:16:38;95973.00;;;8.99;66.69
41234;BME280;26968;42.686;23.352;2022-10-30T03:19:04;96006.91;;;9.24;66.64
41234;BME280;26968;42.686;23.352;2022-10-30T03:21:30;96011.19;;;9.25;66.86
41234;BME280;26968;42.686;23.352;2022-10-30T03:23:55;95982.03;;;9.03;66.94
41234;BME280;26968;42.686;23.352;2022-10-30T03:26:21;95984.38;;;9.00;66.82
41234;BME280;26968;42.686;23.352;2022-10-30T03:28:47;96002.56;;;9.13;67.41
41234;BME280;26968;42.686;23.352;2022-10-30T03:31:14;95982.84;;;9.04;67.16
41234;BME280;26968;42.686;23.352;2022-10-30T03:33:41;95982.38;;;9.07;67.10
41234;BME280;26968;42.686;23.352;2022-10-30T03:36:08;95948.88;;;8.79;67.94
41234;BME280;26968;42.686;23.352;2022-10-30T03:38:34;96011.28;;;9.13;67.41
41234;BME280;26968;42.686;23.352;2022-10-30T03:41:00;96009.22;;;9.15;68.03
41234;BME280;26968;42.686;23.352;2022-10-30T03:43:26;95966.81;;;8.94;67.48
41234;BME280;26968;42.686;23.352;2022-10-30T03:45:54;96013.75;;;9.20;68.01
41234;BME280;26968;42.686;23.352;2022-10-30T03:48:24;95985.88;;;9.12;67.87
41234;BME280;26968;42.686;23.352;2022-10-30T03:50:54;95993.25;;;9.10;67.61
41234;BME280;26968;42.686;23.352;2022-10-30T03:53:20;95979.22;;;9.10;68.06
41234;BME280;26968;42.686;23.352;2022-10-30T03:55:48;95968.00;;;9.03;67.49
41234;BME280;26968;42.686;23.352;2022-10-30T03:58:13;95988.34;;;9.19;67.25
41234;BME280;26968;42.686;23.352;2022-10-30T04:00:39;95933.34;;;8.82;66.80
41234;BME280;26968;42.686;23.352;2022-10-30T04:03:08;95977.13;;;9.12;67.37
41234;BME280;26968;42.686;23.352;2022-10-30T04:05:35;95982.09;;;9.08;67.25
41234;BME280;26968;42.686;23.352;2022-10-30T04:08:04;95946.91;;;8.69;67.47
41234;BME280;26968;42.686;23.352;2022-10-30T04:10:30;95985.16;;;9.00;67.46
41234;BME280;26968;42.686;23.352;2022-10-30T04:13:02;95998.72;;;9.04;67.49
41234;BME280;26968;42.686;23.352;2022-10-30T04:15:28;95997.34;;;9.01;67.75
41234;BME280;26968;42.686;23.352;2022-10-30T04:17:54;95969.88;;;8.85;67.45
41234;BME280;26968;42.686;23.352;2022-10-30T04:20:20;95992.94;;;9.07;67.93
41234;BME280;26968;42.686;23.352;2022-10-30T04:22:47;95999.56;;;9.09;67.33
41234;BME280;26968;42.686;23.352;2022-10-30T04:25:12;95994.03;;;9.11;67.70
41234;BME280;26968;42.686;23.352;2022-10-30T04:27:42;95992.00;;;8.96;68.04
41234;BME280;26968;42.686;23.352;2022-10-30T04:30:10;95983.59;;;8.99;68.33
41234;BME280;26968;42.686;23.352;2022-10-30T04:32:35;95982.03;;;9.03;67.62
41234;BME280;26968;42.686;23.352;2022-10-30T04:35:01;95990.53;;;9.05;67.34
41234;BME280;26968;42.686;23.352;2022-10-30T04:37:28;95911.53;;;8.54;67.18
41234;BME280;26968;42.686;23.352;2022-10-30T04:39:53;95995.03;;;9.05;67.18
41234;BME280;26968;42.686;23.352;2022-10-30T04:42:18;95994.00;;;9.06;67.46
41234;BME280;26968;42.686;23.352;2022-10-30T04:44:44;95996.06;;;9.04;66.61
41234;BME280;26968;42.686;23.352;2022-10-30T04:47:09;96002.97;;;9.05;66.56
41234;BME280;26968;42.686;23.352;2022-10-30T04:49:34;95938.31;;;8.62;65.77
41234;BME280;26968;42.686;23.352;2022-10-30T04:52:00;95997.69;;;8.88;66.43
41234;BME280;26968;42.686;23.352;2022-10-30T04:54:25;96000.66;;;8.92;66.36
41234;BME280;26968;42.686;23.352;2022-10-30T04:56:53;96001.38;;;8.87;66.78
41234;BME280;26968;42.686;23.352;2022-10-30T04:59:18;96001.94;;;8.89;66.98
41234;BME280;26968;42.686;23.352;2022-10-30T05:01:43;95934.41;;;8.48;66.76
41234;BME280;26968;42.686;23.352;2022-10-30T05:04:09;96003.97;;;8.82;66.98
41234;BME280;26968;42.686;23.352;2022-10-30T05:06:34;96006.03;;;8.80;67.34
41234;BME280;26968;42.686;23.352;2022-10-30T05:09:00;96010.28;;;8.81;67.58
41234;BME280;26968;42.686;23.352;2022-10-30T05:11:25;95952.06;;;8.42;66.97
41234;BME280;26968;42.686;23.352;2022-10-30T05:13:51;95967.28;;;8.52;67.16
41234;BME280;26968;42.686;23.352;2022-10-30T05:16:16;96011.50;;;8.73;67.37
41234;BME280;26968;42.686;23.352;2022-10-30T05:18:41;95945.47;;;8.28;67.55
41234;BME280;26968;42.686;23.352;2022-10-30T05:21:07;95985.28;;;8.55;67.40
41234;BME280;26968;42.686;23.352;2022-10-30T05:23:33;95963.91;;;8.40;67.70
41234;BME280;26968;42.686;23.352;2022-10-30T05:25:59;95994.59;;;8.58;67.81
41234;BME280;26968;42.686;23.352;2022-10-30T05:28:25;95995.16;;;8.60;67.58
41234;BME280;26968;42.686;23.352;2022-10-30T05:30:54;95907.81;;;8.04;67.66
41234;BME280;26968;42.686;23.352;2022-10-30T05:33:19;96017.59;;;8.74;67.70
41234;BME280;26968;42.686;23.352;2022-10-30T05:35:45;95938.72;;;8.21;68.82
41234;BME280;26968;42.686;23.352;2022-10-30T05:38:10;95914.25;;;8.08;67.99
41234;BME280;26968;42.686;23.352;2022-10-30T05:40:36;95978.88;;;8.51;67.90
41234;BME280;26968;42.686;23.352;2022-10-30T05:43:02;95977.06;;;8.51;68.30
41234;BME280;26968;42.686;23.352;2022-10-30T05:45:28;95945.78;;;8.32;68.13
41234;BME280;26968;42.686;23.352;2022-10-30T05:50:20;95977.91;;;8.57;68.41
41234;BME280;26968;42.686;23.352;2022-10-30T05:52:45;96016.22;;;8.88;68.33
41234;BME280;26968;42.686;23.352;2022-10-30T05:55:11;96010.06;;;8.82;68.47
41234;BME280;26968;42.686;23.352;2022-10-30T05:57:36;95990.41;;;8.78;68.41
41234;BME280;26968;42.686;23.352;2022-10-30T06:00:02;95971.81;;;8.73;68.51
41234;BME280;26968;42.686;23.352;2022-10-30T06:02:27;96018.50;;;9.01;68.14
41234;BME280;26968;42.686;23.352;2022-10-30T06:04:53;95978.88;;;8.84;68.00
41234;BME280;26968;42.686;23.352;2022-10-30T06:07:18;95992.38;;;9.05;67.70
41234;BME280;26968;42.686;23.352;2022-10-30T06:09:43;96007.44;;;9.21;67.52
41234;BME280;26968;42.686;23.352;2022-10-30T06:12:09;96017.03;;;9.27;67.61
41234;BME280;26968;42.686;23.352;2022-10-30T06:14:34;96011.78;;;9.32;67.60
41234;BME280;26968;42.686;23.352;2022-10-30T06:16:59;95995.06;;;9.26;66.87
41234;BME280;26968;42.686;23.352;2022-10-30T06:19:25;95983.38;;;9.22;66.12
41234;BME280;26968;42.686;23.352;2022-10-30T06:21:50;95974.13;;;9.25;65.97
41234;BME280;26968;42.686;23.352;2022-10-30T06:24:16;95997.66;;;9.43;65.71
41234;BME280;26968;42.686;23.352;2022-10-30T06:26:41;96016.63;;;9.57;65.09
41234;BME280;26968;42.686;23.352;2022-10-30T06:29:06;95932.00;;;9.02;64.87
41234;BME280;26968;42.686;23.352;2022-10-30T06:31:32;95991.84;;;9.46;65.25
41234;BME280;26968;42.686;23.352;2022-10-30T06:33:57;95995.19;;;9.37;64.42
41234;BME280;26968;42.686;23.352;2022-10-30T06:36:23;95956.81;;;9.17;64.33
41234;BME280;26968;42.686;23.352;2022-10-30T06:38:48;96022.25;;;9.60;64.24
41234;BME280;26968;42.686;23.352;2022-10-30T06:41:14;95980.41;;;9.41;63.69
41234;BME280;26968;42.686;23.352;2022-10-30T06:43:39;96027.63;;;9.71;63.42
41234;BME280;26968;42.686;23.352;2022-10-30T06:46:04;95998.88;;;9.57;63.99
41234;BME280;26968;42.686;23.352;2022-10-30T06:48:30;95975.25;;;9.51;63.86
41234;BME280;26968;42.686;23.352;2022-10-30T06:50:57;95990.75;;;9.42;63.71
41234;BME280;26968;42.686;23.352;2022-10-30T06:53:23;96025.22;;;9.47;64.78
41234;BME280;26968;42.686;23.352;2022-10-30T06:55:55;96027.97;;;9.52;64.15
41234;BME280;26968;42.686;23.352;2022-10-30T06:58:22;96025.94;;;9.59;64.46
41234;BME280;26968;42.686;23.352;2022-10-30T07:00:47;96008.97;;;9.39;64.79
41234;BME280;26968;42.686;23.352;2022-10-30T07:03:13;95967.84;;;9.31;64.40
41234;BME280;26968;42.686;23.352;2022-10-30T07:05:38;95946.41;;;9.33;63.80
41234;BME280;26968;42.686;23.352;2022-10-30T07:08:03;96014.28;;;9.82;63.77
41234;BME280;26968;42.686;23.352;2022-10-30T07:10:29;96027.69;;;9.97;63.52
41234;BME280;26968;42.686;23.352;2022-10-30T07:12:55;96026.69;;;10.03;63.55
41234;BME280;26968;42.686;23.352;2022-10-30T07:15:23;95998.78;;;9.96;63.79
41234;BME280;26968;42.686;23.352;2022-10-30T07:17:53;96017.88;;;10.20;63.32
41234;BME280;26968;42.686;23.352;2022-10-30T07:20:19;96014.22;;;10.26;62.63
41234;BME280;26968;42.686;23.352;2022-10-30T07:22:45;95946.28;;;9.93;63.81
41234;BME280;26968;42.686;23.352;2022-10-30T07:25:10;95938.78;;;9.85;63.71
41234;BME280;26968;42.686;23.352;2022-10-30T07:27:43;95973.25;;;10.12;64.15
41234;BME280;26968;42.686;23.352;2022-10-30T07:30:11;95935.78;;;10.03;64.34
41234;BME280;26968;42.686;23.352;2022-10-30T07:32:37;95904.91;;;9.87;65.01
41234;BME280;26968;42.686;23.352;2022-10-30T07:35:02;96006.16;;;10.42;65.89
41234;BME280;26968;42.686;23.352;2022-10-30T07:37:28;95961.59;;;10.13;66.38
41234;BME280;26968;42.686;23.352;2022-10-30T07:39:54;95973.97;;;10.29;65.70
41234;BME280;26968;42.686;23.352;2022-10-30T07:42:19;96010.56;;;10.59;65.90
41234;BME280;26968;42.686;23.352;2022-10-30T07:44:45;95959.63;;;10.30;67.12
41234;BME280;26968;42.686;23.352;2022-10-30T07:47:10;95950.91;;;10.29;67.18
41234;BME280;26968;42.686;23.352;2022-10-30T07:49:35;96003.50;;;10.74;66.73
41234;BME280;26968;42.686;23.352;2022-10-30T07:52:01;95964.59;;;10.53;67.18
41234;BME280;26968;42.686;23.352;2022-10-30T07:54:26;95932.66;;;10.38;67.01
41234;BME280;26968;42.686;23.352;2022-10-30T07:56:52;95974.81;;;10.71;67.92
41234;BME280;26968;42.686;23.352;2022-10-30T07:59:17;95921.88;;;10.44;68.26
41234;BME280;26968;42.686;23.352;2022-10-30T08:01:43;95931.72;;;10.54;68.06
41234;BME280;26968;42.686;23.352;2022-10-30T08:04:08;95908.31;;;10.46;68.09
41234;BME280;26968;42.686;23.352;2022-10-30T08:06:35;95933.44;;;10.70;67.91
41234;BME280;26968;42.686;23.352;2022-10-30T08:09:00;95924.19;;;10.73;68.03
41234;BME280;26968;42.686;23.352;2022-10-30T08:11:26;95921.88;;;10.87;68.20
41234;BME280;26968;42.686;23.352;2022-10-30T08:13:51;95977.59;;;11.29;68.02
41234;BME280;26968;42.686;23.352;2022-10-30T08:16:17;95895.31;;;10.87;67.34
41234;BME280;26968;42.686;23.352;2022-10-30T08:18:43;95969.09;;;11.32;67.63
41234;BME280;26968;42.686;23.352;2022-10-30T08:21:08;95915.91;;;11.11;67.80
41234;BME280;26968;42.686;23.352;2022-10-30T08:23:34;95937.69;;;11.18;67.82
41234;BME280;26968;42.686;23.352;2022-10-30T08:26:00;95933.81;;;11.36;67.81
41234;BME280;26968;42.686;23.352;2022-10-30T08:28:25;95935.16;;;11.44;67.54
41234;BME280;26968;42.686;23.352;2022-10-30T08:30:51;95905.09;;;11.28;67.00
41234;BME280;26968;42.686;23.352;2022-10-30T08:33:16;95957.03;;;11.71;67.63
41234;BME280;26968;42.686;23.352;2022-10-30T08:35:52;95955.44;;;11.70;67.54
41234;BME280;26968;42.686;23.352;2022-10-30T08:38:18;95957.59;;;11.78;67.00
41234;BME280;26968;42.686;23.352;2022-10-30T08:40:44;95896.63;;;11.36;66.53
41234;BME280;26968;42.686;23.352;2022-10-30T08:43:09;95914.22;;;11.57;66.73
41234;BME280;26968;42.686;23.352;2022-10-30T08:45:35;95901.19;;;11.56;66.83
41234;BME280;26968;42.686;23.352;2022-10-30T08:48:02;95957.69;;;12.04;66.94
41234;BME280;26968;42.686;23.352;2022-10-30T08:50:29;95953.16;;;12.04;66.79
41234;BME280;26968;42.686;23.352;2022-10-30T08:52:54;95959.28;;;12.15;67.31
41234;BME280;26968;42.686;23.352;2022-10-30T08:55:20;95860.03;;;11.58;66.52
41234;BME280;26968;42.686;23.352;2022-10-30T08:57:45;95917.53;;;12.10;66.44
41234;BME280;26968;42.686;23.352;2022-10-30T09:00:11;95923.66;;;12.26;66.57
41234;BME280;26968;42.686;23.352;2022-10-30T09:02:36;95940.94;;;12.49;66.10
41234;BME280;26968;42.686;23.352;2022-10-30T09:05:06;95935.88;;;12.52;65.99
41234;BME280;26968;42.686;23.352;2022-10-30T09:07:32;95934.84;;;12.58;65.89
41234;BME280;26968;42.686;23.352;2022-10-30T09:09:57;95894.69;;;12.34;65.88
41234;BME280;26968;42.686;23.352;2022-10-30T09:12:23;95937.75;;;12.57;65.56
41234;BME280;26968;42.686;23.352;2022-10-30T09:14:48;95860.63;;;12.21;65.21
41234;BME280;26968;42.686;23.352;2022-10-30T09:17:13;95867.81;;;12.31;64.68
41234;BME280;26968;42.686;23.352;2022-10-30T09:19:39;95928.94;;;12.76;65.03
41234;BME280;26968;42.686;23.352;2022-10-30T09:22:05;95886.41;;;12.51;64.72
41234;BME280;26968;42.686;23.352;2022-10-30T09:24:30;95886.41;;;12.56;64.77
41234;BME280;26968;42.686;23.352;2022-10-30T09:26:56;95884.00;;;12.65;64.44
41234;BME280;26968;42.686;23.352;2022-10-30T09:29:21;95873.63;;;12.58;64.35
41234;BME280;26968;42.686;23.352;2022-10-30T09:31:47;95865.63;;;12.68;63.77
41234;BME280;26968;42.686;23.352;2022-10-30T09:34:12;95887.16;;;12.87;63.47
41234;BME280;26968;42.686;23.352;2022-10-30T09:36:38;95916.34;;;13.12;63.91
41234;BME280;26968;42.686;23.352;2022-10-30T09:39:03;95899.34;;;13.13;63.16
41234;BME280;26968;42.686;23.352;2022-10-30T09:41:45;95905.69;;;13.23;63.27
41234;BME280;26968;42.686;23.352;2022-10-30T09:52:26;95847.38;;;13.70;60.96
41234;BME280;26968;42.686;23.352;2022-10-30T10:00:22;95870.78;;;17.82;51.51
41234;BME280;26968;42.686;23.352;2022-10-30T10:05:40;95836.06;;;20.14;44.70
41234;BME280;26968;42.686;23.352;2022-10-30T10:08:15;95861.88;;;21.13;42.63
41234;BME280;26968;42.686;23.352;2022-10-30T10:10:44;95861.16;;;21.92;40.74
41234;BME280;26968;42.686;23.352;2022-10-30T10:13:35;95849.91;;;21.61;40.06
41234;BME280;26968;42.686;23.352;2022-10-30T10:16:18;95841.56;;;22.04;39.66
41234;BME280;26968;42.686;23.352;2022-10-30T10:18:51;95787.09;;;21.52;40.07
41234;BME280;26968;42.686;23.352;2022-10-30T10:21:25;95800.22;;;21.83;39.55
41234;BME280;26968;42.686;23.352;2022-10-30T10:24:00;95793.25;;;21.61;39.76
41234;BME280;26968;42.686;23.352;2022-10-30T10:26:29;95821.25;;;21.27;40.81
41234;BME280;26968;42.686;23.352;2022-10-30T10:37:30;95807.28;;;19.97;43.06
41234;BME280;26968;42.686;23.352;2022-10-30T10:40:07;95804.41;;;19.85;43.46
41234;BME280;26968;42.686;23.352;2022-10-30T10:48:12;95775.88;;;19.41;43.18
41234;BME280;26968;42.686;23.352;2022-10-30T10:50:56;95767.19;;;19.61;43.80
41234;BME280;26968;42.686;23.352;2022-10-30T10:56:10;95787.63;;;19.54;43.04
41234;BME280;26968;42.686;23.352;2022-10-30T11:04:49;95748.34;;;19.36;43.50
41234;BME280;26968;42.686;23.352;2022-10-30T11:07:18;95766.91;;;19.63;43.72
41234;BME280;26968;42.686;23.352;2022-10-30T11:09:49;95739.69;;;19.56;42.51
41234;BME280;26968;42.686;23.352;2022-10-30T11:12:34;95736.19;;;19.47;42.67
41234;BME280;26968;42.686;23.352;2022-10-30T11:15:08;95751.72;;;19.67;42.46
41234;BME280;26968;42.686;23.352;2022-10-30T11:17:47;95724.63;;;19.81;42.44
41234;BME280;26968;42.686;23.352;2022-10-30T11:20:20;95721.47;;;19.87;41.72
41234;BME280;26968;42.686;23.352;2022-10-30T11:22:50;95709.16;;;20.33;40.74
41234;BME280;26968;42.686;23.352;2022-10-30T11:25:19;95738.78;;;20.79;40.46
41234;BME280;26968;42.686;23.352;2022-10-30T11:27:56;95701.06;;;20.79;40.07
41234;BME280;26968;42.686;23.352;2022-10-30T11:30:24;95727.38;;;21.12;39.35
41234;BME280;26968;42.686;23.352;2022-10-30T11:32:50;95716.22;;;21.22;38.45
41234;BME280;26968;42.686;23.352;2022-10-30T11:35:18;95731.69;;;21.54;38.54
41234;BME280;26968;42.686;23.352;2022-10-30T11:37:48;95719.78;;;21.55;38.10
41234;BME280;26968;42.686;23.352;2022-10-30T11:40:23;95712.00;;;21.33;38.30
41234;BME280;26968;42.686;23.352;2022-10-30T11:45:23;95693.19;;;21.45;37.85
41234;BME280;26968;42.686;23.352;2022-10-30T11:47:49;95707.91;;;21.69;37.83
41234;BME280;26968;42.686;23.352;2022-10-30T11:50:22;95695.28;;;21.81;37.25
41234;BME280;26968;42.686;23.352;2022-10-30T11:52:54;95680.75;;;21.74;36.55
41234;BME280;26968;42.686;23.352;2022-10-30T11:55:34;95681.41;;;21.83;36.79
41234;BME280;26968;42.686;23.352;2022-10-30T11:58:04;95654.09;;;21.84;36.37
41234;BME280;26968;42.686;23.352;2022-10-30T12:00:32;95660.19;;;21.81;36.72
41234;BME280;26968;42.686;23.352;2022-10-30T12:02:59;95696.81;;;22.48;36.33
41234;BME280;26968;42.686;23.352;2022-10-30T12:10:33;95687.53;;;22.25;34.96
41234;BME280;26968;42.686;23.352;2022-10-30T12:13:05;95675.25;;;22.15;34.87
41234;BME280;26968;42.686;23.352;2022-10-30T12:15:34;95673.75;;;22.06;35.01
41234;BME280;26968;42.686;23.352;2022-10-30T12:18:04;95680.69;;;22.27;34.75
41234;BME280;26968;42.686;23.352;2022-10-30T12:20:31;95650.84;;;22.24;34.20
41234;BME280;26968;42.686;23.352;2022-10-30T12:23:08;95673.47;;;22.19;34.55
41234;BME280;26968;42.686;23.352;2022-10-30T12:25:33;95641.56;;;22.13;34.24
41234;BME280;26968;42.686;23.352;2022-10-30T12:30:34;95667.41;;;22.35;34.08
41234;BME280;26968;42.686;23.352;2022-10-30T12:33:11;95663.91;;;22.46;33.85
41234;BME280;26968;42.686;23.352;2022-10-30T12:35:49;95646.69;;;22.39;34.17
41234;BME280;26968;42.686;23.352;2022-10-30T12:38:41;95594.88;;;22.00;34.41
41234;BME280;26968;42.686;23.352;2022-10-30T12:43:57;95658.19;;;22.48;34.30
41234;BME280;26968;42.686;23.352;2022-10-30T12:46:47;95655.56;;;22.39;34.62
41234;BME280;26968;42.686;23.352;2022-10-30T12:52:10;95654.22;;;22.33;35.14
41234;BME280;26968;42.686;23.352;2022-10-30T12:57:15;95629.91;;;22.33;35.08
41234;BME280;26968;42.686;23.352;2022-10-30T13:00:32;95615.38;;;22.38;34.63
41234;BME280;26968;42.686;23.352;2022-10-30T13:13:12;95633.75;;;22.56;33.56
41234;BME280;26968;42.686;23.352;2022-10-30T13:15:46;95621.69;;;22.54;33.71
41234;BME280;26968;42.686;23.352;2022-10-30T13:18:15;95635.44;;;22.73;33.56
41234;BME280;26968;42.686;23.352;2022-10-30T13:20:43;95601.63;;;22.67;33.44
41234;BME280;26968;42.686;23.352;2022-10-30T13:23:15;95624.72;;;22.89;32.93
41234;BME280;26968;42.686;23.352;2022-10-30T13:26:11;95611.09;;;22.85;33.11
41234;BME280;26968;42.686;23.352;2022-10-30T13:34:45;95591.72;;;21.98;33.22
41234;BME280;26968;42.686;23.352;2022-10-30T13:37:40;95622.56;;;22.21;33.00
41234;BME280;26968;42.686;23.352;2022-10-30T13:40:13;95634.72;;;22.15;33.32
41234;BME280;26968;42.686;23.352;2022-10-30T13:46:09;95625.22;;;21.97;34.09
41234;BME280;26968;42.686;23.352;2022-10-30T13:54:44;95630.22;;;21.74;34.81
41234;BME280;26968;42.686;23.352;2022-10-30T14:00:16;95630.81;;;21.47;35.04
41234;BME280;26968;42.686;23.352;2022-10-30T14:03:14;95631.94;;;21.25;35.61
41234;BME280;26968;42.686;23.352;2022-10-30T14:08:45;95609.81;;;20.90;36.51
41234;BME280;26968;42.686;23.352;2022-10-30T14:11:10;95596.97;;;20.66;36.85
41234;BME280;26968;42.686;23.352;2022-10-30T14:13:54;95584.56;;;20.45;37.10
41234;BME280;26968;42.686;23.352;2022-10-30T14:17:12;95622.34;;;20.65;37.51
41234;BME280;26968;42.686;23.352;2022-10-30T14:22:32;95589.38;;;20.30;38.07
41234;BME280;26968;42.686;23.352;2022-10-30T14:24:59;95632.75;;;20.46;37.93
41234;BME280;26968;42.686;23.352;2022-10-30T14:27:32;95605.44;;;20.18;38.37
41234;BME280;26968;42.686;23.352;2022-10-30T14:29:58;95627.75;;;20.27;38.81
41234;BME280;26968;42.686;23.352;2022-10-30T14:39:48;95602.53;;;19.94;39.12
41234;BME280;26968;42.686;23.352;2022-10-30T14:45:07;95597.97;;;19.77;39.93
41234;BME280;26968;42.686;23.352;2022-10-30T14:58:37;95625.09;;;19.38;41.49
41234;BME280;26968;42.686;23.352;2022-10-30T15:12:07;95641.38;;;19.24;42.68
41234;BME280;26968;42.686;23.352;2022-10-30T15:14:37;95638.25;;;19.13;43.03
41234;BME280;26968;42.686;23.352;2022-10-30T15:17:04;95632.06;;;19.04;43.36
41234;BME280;26968;42.686;23.352;2022-10-30T15:19:39;95619.25;;;18.84;43.67
41234;BME280;26968;42.686;23.352;2022-10-30T15:22:04;95598.03;;;18.65;43.71
41234;BME280;26968;42.686;23.352;2022-10-30T15:24:32;95606.91;;;18.74;43.62
41234;BME280;26968;42.686;23.352;2022-10-30T15:26:59;95643.28;;;18.89;44.14
41234;BME280;26968;42.686;23.352;2022-10-30T15:29:32;95594.19;;;18.49;44.55
41234;BME280;26968;42.686;23.352;2022-10-30T15:32:00;95648.94;;;18.79;44.64
41234;BME280;26968;42.686;23.352;2022-10-30T15:34:31;95640.56;;;18.72;44.32
41234;BME280;26968;42.686;23.352;2022-10-30T15:36:57;95645.13;;;18.71;44.89
41234;BME280;26968;42.686;23.352;2022-10-30T15:39:23;95624.88;;;18.57;44.74